createdAt,value
2024-03-12T00:01:12.809Z,42.13
2024-03-12T00:03:45.678Z,53.47
2024-03-12T00:06:21.617Z,50.33
2024-03-12T00:08:54.206Z,50.72
2024-03-12T00:11:27.548Z,51.13
2024-03-12T00:13:59.660Z,47.40
2024-03-12T00:16:35.196Z,57.08
2024-03-12T00:19:11.188Z,47.28
2024-03-12T00:21:47.330Z,56.28
2024-03-12T00:24:19.886Z,53.33
2024-03-12T00:26:52.225Z,46.88
2024-03-12T00:29:25.083Z,56.03
2024-03-12T00:31:57.543Z,55.72
2024-03-12T00:34:31.725Z,48.67
2024-03-12T00:37:06.632Z,47.13
2024-03-12T00:39:39.548Z,55.85
2024-03-12T00:42:12.117Z,51.05
2024-03-12T00:44:45.136Z,58.00
2024-03-12T00:47:17.714Z,56.60
2024-03-12T00:49:49.921Z,43.70
2024-03-12T00:52:25.295Z,45.40
2024-03-12T00:54:57.670Z,53.05
2024-03-12T00:57:30.057Z,55.30
2024-03-12T01:00:02.006Z,58.60
2024-03-12T01:02:34.664Z,55.72
2024-03-12T01:05:08.930Z,58.25
2024-03-12T01:07:43.485Z,59.00
2024-03-12T01:10:15.233Z,46.70
2024-03-12T01:12:48.086Z,63.13
2024-03-12T01:15:20.628Z,74.38
2024-03-12T01:17:52.978Z,60.58
2024-03-12T01:20:26.792Z,76.43
2024-03-12T01:23:03.001Z,53.80
2024-03-12T01:25:38.541Z,67.72
2024-03-12T01:28:12.204Z,60.40
2024-03-12T01:30:44.406Z,60.85
2024-03-12T01:33:16.586Z,55.97
2024-03-12T01:35:49.343Z,65.47
2024-03-12T01:38:24.129Z,77.55
2024-03-12T01:40:56.252Z,75.78
2024-03-12T01:43:29.626Z,54.65
2024-03-12T01:46:04.364Z,60.38
2024-03-12T01:48:36.716Z,51.55
2024-03-12T01:51:10.004Z,79.10
2024-03-12T01:53:47.421Z,60.67
2024-03-12T01:56:19.484Z,68.40
2024-03-12T01:58:52.307Z,51.65
2024-03-12T02:01:24.808Z,61.67
2024-03-12T02:03:58.096Z,72.40
2024-03-12T02:06:30.426Z,63.38
2024-03-12T02:09:07.996Z,56.20
2024-03-12T02:11:42.016Z,79.68
2024-03-12T02:14:14.181Z,66.50
2024-03-12T02:16:47.775Z,52.28
2024-03-12T02:19:20.685Z,81.03
2024-03-12T02:21:53.390Z,70.00
2024-03-12T02:24:28.533Z,71.28
2024-03-12T02:27:00.784Z,66.90
2024-03-12T02:29:33.504Z,77.68
2024-03-12T02:32:06.313Z,64.35
2024-03-12T02:34:38.693Z,94.80
2024-03-12T02:37:11.498Z,54.88
2024-03-12T02:39:46.576Z,46.92
2024-03-12T02:42:16.960Z,78.05
2024-03-12T02:44:48.782Z,76.90
2024-03-12T02:47:22.442Z,85.93
2024-03-12T02:49:55.964Z,67.35
2024-03-12T02:52:28.775Z,85.78
2024-03-12T02:55:05.088Z,75.75
2024-03-12T02:57:37.033Z,67.22
2024-03-12T03:00:14.905Z,96.95
2024-03-12T03:02:48.549Z,57.28
2024-03-12T03:05:20.832Z,84.75
2024-03-12T03:07:53.083Z,56.47
2024-03-12T03:10:28.056Z,91.20
2024-03-12T03:13:01.440Z,80.57
2024-03-12T03:15:33.903Z,93.05
2024-03-12T03:18:07.617Z,65.07
2024-03-12T03:20:40.617Z,96.22
2024-03-12T03:23:12.634Z,68.00
2024-03-12T03:25:48.121Z,85.50
2024-03-12T03:30:55.219Z,67.80
2024-03-12T03:33:27.058Z,65.05
2024-03-12T03:35:59.611Z,99.60
2024-03-12T03:38:31.797Z,74.82
2024-03-12T03:41:07.470Z,81.47
2024-03-12T03:43:39.493Z,66.78
2024-03-12T03:46:12.337Z,68.95
2024-03-12T03:48:46.048Z,66.05
2024-03-12T03:51:18.934Z,92.18
2024-03-12T03:53:51.694Z,67.13
2024-03-12T03:56:26.926Z,71.97
2024-03-12T03:58:59.983Z,63.55
2024-03-12T04:01:33.237Z,75.03
2024-03-12T04:04:12.756Z,88.82
2024-03-12T04:06:47.601Z,73.38
2024-03-12T04:09:20.143Z,69.68
2024-03-12T04:11:55.422Z,70.70
2024-03-12T04:14:28.265Z,71.32
2024-03-12T04:16:59.283Z,74.43
2024-03-12T04:19:33.367Z,72.63
2024-03-12T04:22:05.949Z,67.15
2024-03-12T04:24:38.426Z,87.65
2024-03-12T04:27:16.276Z,79.03
2024-03-12T04:29:47.148Z,75.78
2024-03-12T04:32:17.992Z,74.07
2024-03-12T04:34:48.740Z,84.22
2024-03-12T04:37:19.509Z,96.35
2024-03-12T04:39:50.382Z,84.75
2024-03-12T04:42:25.659Z,90.85
2024-03-12T04:44:57.512Z,77.30
2024-03-12T04:47:28.312Z,76.15
2024-03-12T04:49:59.127Z,86.13
2024-03-12T04:52:29.873Z,90.57
2024-03-12T04:55:01.113Z,60.67
2024-03-12T04:57:36.933Z,55.97
2024-03-12T05:00:16.211Z,104.25
2024-03-12T05:02:48.264Z,79.45
2024-03-12T05:05:20.677Z,71.95
2024-03-12T05:07:51.824Z,107.25
2024-03-12T05:10:23.911Z,94.70
2024-03-12T05:12:57.836Z,92.75
2024-03-12T05:15:28.639Z,73.35
2024-03-12T05:17:59.538Z,71.78
2024-03-12T05:20:30.977Z,99.75
2024-03-12T05:23:03.573Z,105.43
2024-03-12T05:25:43.776Z,107.28
2024-03-12T05:28:17.306Z,82.95
2024-03-12T05:30:50.067Z,82.57
2024-03-12T05:33:27.951Z,101.97
2024-03-12T05:35:58.752Z,83.03
2024-03-12T05:38:37.738Z,81.57
2024-03-12T05:41:27.012Z,97.90
2024-03-12T05:44:21.909Z,98.43
2024-03-12T05:47:05.086Z,77.80
2024-03-12T05:49:36.276Z,107.60
2024-03-12T05:52:07.500Z,82.65
2024-03-12T05:54:38.352Z,76.85
2024-03-12T05:57:09.977Z,74.97
2024-03-12T05:59:43.572Z,68.40
2024-03-12T06:02:14.548Z,94.97
2024-03-12T06:04:45.688Z,74.82
2024-03-12T06:07:18.175Z,94.13
2024-03-12T06:09:50.723Z,73.60
2024-03-12T06:12:21.734Z,82.60
2024-03-12T06:14:55.105Z,89.47
2024-03-12T06:17:25.903Z,83.72
2024-03-12T06:19:56.687Z,77.38
2024-03-12T06:22:28.141Z,77.05
2024-03-12T06:24:59.162Z,68.43
2024-03-12T06:27:30.618Z,82.65
2024-03-12T06:30:03.953Z,75.88
2024-03-12T06:32:35.331Z,100.18
2024-03-12T06:35:06.223Z,84.00
2024-03-12T06:37:37.025Z,65.35
2024-03-12T06:40:08.654Z,75.90
2024-03-12T06:42:39.435Z,76.63
2024-03-12T06:45:13.617Z,67.13
2024-03-12T06:47:44.428Z,60.45
2024-03-12T06:50:15.649Z,76.47
2024-03-12T06:52:50.334Z,61.10
2024-03-12T06:55:25.018Z,68.35
2024-03-12T06:58:01.283Z,75.13
2024-03-12T07:00:38.913Z,65.03
2024-03-12T07:03:10.819Z,72.82
2024-03-12T07:05:45.065Z,85.25
2024-03-12T07:08:18.919Z,75.05
2024-03-12T07:10:50.138Z,78.55
2024-03-12T07:13:25.006Z,74.00
2024-03-12T07:18:41.415Z,60.45
2024-03-12T07:21:12.246Z,67.97
2024-03-12T07:23:43.004Z,70.10
2024-03-12T07:26:13.765Z,76.68
2024-03-12T07:28:45.028Z,82.22
2024-03-12T07:31:18.525Z,74.80
2024-03-12T07:33:49.836Z,64.15
2024-03-12T07:36:22.253Z,77.50
2024-03-12T07:38:54.013Z,84.93
2024-03-12T07:41:24.816Z,75.10
2024-03-12T07:43:56.201Z,75.28
2024-03-12T07:46:29.984Z,80.05
2024-03-12T07:49:00.786Z,83.82
2024-03-12T07:51:31.803Z,77.20
2024-03-12T07:54:07.778Z,77.43
2024-03-12T07:56:38.750Z,70.78
2024-03-12T07:59:09.529Z,73.38
2024-03-12T08:01:42.935Z,103.78
2024-03-12T08:04:14.365Z,68.60
2024-03-12T08:06:45.228Z,71.57
2024-03-12T08:09:16.391Z,69.30
2024-03-12T08:11:47.899Z,55.15
2024-03-12T08:14:19.141Z,85.55
2024-03-12T08:16:52.553Z,75.22
2024-03-12T08:19:26.840Z,92.85
2024-03-12T08:21:57.726Z,119.55
2024-03-12T08:24:30.678Z,99.55
2024-03-12T08:27:01.489Z,89.10
2024-03-12T08:29:32.276Z,80.80
2024-03-12T08:32:05.692Z,79.38
2024-03-12T08:34:38.107Z,83.35
2024-03-12T08:37:10.703Z,84.53
2024-03-12T08:39:41.926Z,75.15
2024-03-12T08:42:12.735Z,71.35
2024-03-12T08:44:44.691Z,64.15
2024-03-12T08:47:15.673Z,60.28
2024-03-12T08:49:47.385Z,88.82
2024-03-12T08:52:18.273Z,66.18
2024-03-12T08:54:49.201Z,82.28
2024-03-12T08:57:20.135Z,77.40
2024-03-12T08:59:51.333Z,82.50
2024-03-12T09:02:24.855Z,78.57
2024-03-12T09:04:55.678Z,85.18
2024-03-12T09:07:26.457Z,77.75
2024-03-12T09:09:59.969Z,69.85
2024-03-12T09:12:31.263Z,83.68
2024-03-12T09:15:03.725Z,68.15
2024-03-12T09:17:37.608Z,83.50
2024-03-12T09:20:11.613Z,67.07
2024-03-12T09:22:45.802Z,67.70
2024-03-12T09:25:19.796Z,61.58
2024-03-12T09:27:51.518Z,73.45
2024-03-12T09:30:22.358Z,78.05
2024-03-12T09:32:55.727Z,65.70
2024-03-12T09:35:26.568Z,78.35
2024-03-12T09:37:58.085Z,73.00
2024-03-12T09:40:29.777Z,69.30
2024-03-12T09:43:04.945Z,78.45
2024-03-12T09:45:36.246Z,76.93
2024-03-12T09:48:10.520Z,62.83
2024-03-12T09:50:43.339Z,59.08
2024-03-12T09:53:15.961Z,60.80
2024-03-12T09:55:46.985Z,56.50
2024-03-12T09:58:17.993Z,57.60
2024-03-12T10:00:48.822Z,60.22
2024-03-12T10:03:25.842Z,64.78
2024-03-12T10:05:56.969Z,58.85
2024-03-12T10:08:33.151Z,62.90
2024-03-12T10:11:10.362Z,68.63
2024-03-12T10:13:43.171Z,55.95
2024-03-12T10:16:22.238Z,55.13
2024-03-12T10:19:10.644Z,57.60
2024-03-12T10:21:42.268Z,58.95
2024-03-12T10:24:14.787Z,68.28
2024-03-12T10:26:46.492Z,59.72
2024-03-12T10:29:19.777Z,76.25
2024-03-12T10:31:52.128Z,66.35
2024-03-12T10:34:25.579Z,61.03
2024-03-12T10:36:56.379Z,73.72
2024-03-12T10:39:34.186Z,59.05
2024-03-12T10:42:05.401Z,55.17
2024-03-12T10:44:40.298Z,77.63
2024-03-12T10:49:49.400Z,52.05
2024-03-12T10:52:21.342Z,47.17
2024-03-12T10:55:05.035Z,55.72
2024-03-12T10:57:42.013Z,47.30
2024-03-12T11:00:16.997Z,45.28
2024-03-12T11:02:48.289Z,51.65
2024-03-12T11:05:23.876Z,46.25
2024-03-12T11:07:55.473Z,48.13
2024-03-12T11:10:28.284Z,47.38
2024-03-12T11:13:03.497Z,40.47
2024-03-12T11:15:35.391Z,39.50
2024-03-12T11:18:06.800Z,51.00
2024-03-12T11:20:43.231Z,38.38
2024-03-12T11:23:15.971Z,58.65
2024-03-12T11:25:51.286Z,42.30
2024-03-12T11:28:23.870Z,45.58
2024-03-12T11:31:05.696Z,45.53
2024-03-12T11:33:51.061Z,42.95
2024-03-12T11:36:36.029Z,47.75
2024-03-12T11:39:16.911Z,46.65
2024-03-12T11:42:16.647Z,44.55
2024-03-12T11:44:49.587Z,39.42
2024-03-12T11:47:36.270Z,46.92
2024-03-12T11:50:11.873Z,52.60
2024-03-12T11:52:45.332Z,47.20
2024-03-12T11:55:36.064Z,43.60
2024-03-12T11:58:07.828Z,39.03
2024-03-12T12:00:39.744Z,52.85
2024-03-12T12:03:10.609Z,41.08
2024-03-12T12:05:42.207Z,47.17
2024-03-12T12:08:16.369Z,42.78
2024-03-12T12:10:59.758Z,48.75
2024-03-12T12:13:31.016Z,40.63
2024-03-12T12:16:02.816Z,42.88
2024-03-12T12:18:34.937Z,38.78
2024-03-12T12:21:08.123Z,43.00
2024-03-12T12:23:45.131Z,46.70
2024-03-12T12:26:20.159Z,37.17
2024-03-12T12:31:22.586Z,35.15
2024-03-12T12:33:56.918Z,37.55
2024-03-12T12:36:30.245Z,33.65
2024-03-12T12:39:05.490Z,46.00
2024-03-12T12:41:39.427Z,38.55
2024-03-12T12:44:18.360Z,37.97
2024-03-12T12:46:53.708Z,39.67
2024-03-12T12:49:26.338Z,38.22
2024-03-12T12:51:58.910Z,40.35
2024-03-12T12:54:33.661Z,40.53
2024-03-12T12:57:04.437Z,42.42
2024-03-12T12:59:38.242Z,39.00
2024-03-12T13:02:20.092Z,37.75
2024-03-12T13:04:51.045Z,40.67
2024-03-12T13:07:33.595Z,43.20
2024-03-12T13:10:18.368Z,42.60
2024-03-12T13:12:49.768Z,49.38
2024-03-12T13:15:27.314Z,48.22
2024-03-12T13:17:58.115Z,47.17
2024-03-12T13:20:29.266Z,45.42
2024-03-12T13:23:00.149Z,49.30
2024-03-12T13:25:33.517Z,44.10
2024-03-12T13:28:05.037Z,36.97
2024-03-12T13:30:35.872Z,46.08
2024-03-12T13:33:07.745Z,53.05
2024-03-12T13:35:38.551Z,53.95
2024-03-12T13:38:10.977Z,47.28
2024-03-12T13:40:44.366Z,50.22
2024-03-12T13:43:15.366Z,47.55
2024-03-12T13:45:47.789Z,38.80
2024-03-12T13:48:20.610Z,55.47
2024-03-12T13:50:51.343Z,43.33
2024-03-12T13:53:22.790Z,52.30
2024-03-12T13:55:56.107Z,50.45
2024-03-12T13:58:27.365Z,43.40
2024-03-12T14:01:00.832Z,47.35
2024-03-12T14:03:33.719Z,39.88
2024-03-12T14:06:05.071Z,47.08
2024-03-12T14:08:35.917Z,38.15
2024-03-12T14:11:09.341Z,41.97
2024-03-12T14:13:40.885Z,40.97
2024-03-12T14:16:11.705Z,38.25
2024-03-12T14:18:44.134Z,46.08
2024-03-12T14:21:15.248Z,41.47
2024-03-12T14:23:46.339Z,41.35
2024-03-12T14:26:20.241Z,42.22
2024-03-12T14:28:52.686Z,42.47
2024-03-12T14:31:23.592Z,39.72
2024-03-12T14:33:54.430Z,46.53
2024-03-12T14:36:25.787Z,41.60
2024-03-12T14:38:57.354Z,44.17
2024-03-12T14:41:31.040Z,41.67
2024-03-12T14:44:01.814Z,44.88
2024-03-12T14:46:32.719Z,37.78
2024-03-12T14:49:05.718Z,35.70
2024-03-12T14:51:36.596Z,47.50
2024-03-12T14:54:07.586Z,51.00
2024-03-12T14:56:41.869Z,41.88
2024-03-12T14:59:13.283Z,46.25
2024-03-12T15:01:45.883Z,45.03
2024-03-12T15:04:17.609Z,50.50
2024-03-12T15:06:49.543Z,49.42
2024-03-12T15:09:23.078Z,54.50
2024-03-12T15:11:58.481Z,43.53
2024-03-12T15:14:29.737Z,50.72
2024-03-12T15:17:00.936Z,51.08
2024-03-12T15:19:32.447Z,47.58
2024-03-12T15:22:06.538Z,47.30
2024-03-12T15:24:39.847Z,43.47
2024-03-12T15:27:14.391Z,46.80
2024-03-12T15:29:45.604Z,41.70
2024-03-12T15:32:17.681Z,48.28
2024-03-12T15:34:48.590Z,46.70
2024-03-12T15:37:19.809Z,42.80
2024-03-12T15:39:51.212Z,44.00
2024-03-12T15:42:24.770Z,46.47
2024-03-12T15:44:56.925Z,51.20
2024-03-12T15:47:28.238Z,44.88
2024-03-12T15:49:59.836Z,47.92
2024-03-12T15:52:30.972Z,44.33
2024-03-12T15:55:03.447Z,48.40
2024-03-12T15:57:40.020Z,46.92
2024-03-12T16:00:15.547Z,44.80
2024-03-12T16:02:48.454Z,50.90
2024-03-12T16:05:20.499Z,47.08
2024-03-12T16:07:53.113Z,48.47
2024-03-12T16:10:24.933Z,44.58
2024-03-12T16:12:59.265Z,45.80
2024-03-12T16:15:30.416Z,50.92
2024-03-12T16:18:02.229Z,49.38
2024-03-12T16:20:33.872Z,50.80
2024-03-12T16:23:05.135Z,47.90
2024-03-12T16:25:36.592Z,51.95
2024-03-12T16:28:10.959Z,48.95
2024-03-12T16:30:42.020Z,50.03
2024-03-12T16:33:13.248Z,53.28
2024-03-12T16:35:45.770Z,53.42
2024-03-12T16:38:18.321Z,54.03
2024-03-12T16:40:49.477Z,46.95
2024-03-12T16:43:23.552Z,50.60
2024-03-12T16:45:55.481Z,47.42
2024-03-12T16:48:27.935Z,52.72
2024-03-12T16:50:59.501Z,52.70
2024-03-12T16:53:32.236Z,52.25
2024-03-12T16:56:04.608Z,55.20
2024-03-12T16:58:39.641Z,49.95
2024-03-12T17:03:45.585Z,49.40
2024-03-12T17:06:21.101Z,55.92
2024-03-12T17:08:54.772Z,49.90
2024-03-12T17:11:26.459Z,50.58
2024-03-12T17:14:04.720Z,59.05
2024-03-12T17:16:37.189Z,64.47
2024-03-12T17:19:11.747Z,57.80
2024-03-12T17:21:43.842Z,53.97
2024-03-12T17:24:16.691Z,58.38
2024-03-12T17:26:50.766Z,63.53
2024-03-12T17:29:27.103Z,56.28
2024-03-12T17:31:59.719Z,58.15
2024-03-12T17:34:32.876Z,57.17
2024-03-12T17:37:08.361Z,55.63
2024-03-12T17:39:40.571Z,62.67
2024-03-12T17:42:13.199Z,61.65
2024-03-12T17:44:48.278Z,63.00
2024-03-12T17:47:22.458Z,59.40
2024-03-12T17:49:58.500Z,63.60
2024-03-12T17:52:30.910Z,55.05
2024-03-12T17:55:03.425Z,63.08
2024-03-12T17:57:37.307Z,60.90
2024-03-12T18:00:15.871Z,63.13
2024-03-12T18:02:50.935Z,68.15
2024-03-12T18:05:26.673Z,64.32
2024-03-12T18:08:03.779Z,64.55
2024-03-12T18:10:38.812Z,66.00
2024-03-12T18:13:15.983Z,65.45
2024-03-12T18:15:53.958Z,60.00
2024-03-12T18:18:27.677Z,59.53
2024-03-12T18:20:59.715Z,61.97
2024-03-12T18:23:32.767Z,61.05
2024-03-12T18:26:06.946Z,67.25
2024-03-12T18:28:39.652Z,67.30
2024-03-12T18:31:15.618Z,61.70
2024-03-12T18:33:48.553Z,57.08
2024-03-12T18:36:22.580Z,64.45
2024-03-12T18:38:56.259Z,57.70
2024-03-12T18:41:27.638Z,56.22
2024-03-12T18:43:59.296Z,55.53
2024-03-12T18:46:33.135Z,63.20
2024-03-12T18:49:05.045Z,55.47
2024-03-12T18:51:37.301Z,65.22
2024-03-12T18:54:08.991Z,61.63
2024-03-12T18:56:40.858Z,64.20
2024-03-12T18:59:13.432Z,66.07
2024-03-12T19:01:52.671Z,62.70
2024-03-12T19:04:32.262Z,67.90
2024-03-12T19:07:04.865Z,57.50
2024-03-12T19:09:36.775Z,64.32
2024-03-12T19:12:12.132Z,68.43
2024-03-12T19:14:45.427Z,63.95
2024-03-12T19:17:21.501Z,59.58
2024-03-12T19:19:54.221Z,62.67
2024-03-12T19:22:27.705Z,67.60
2024-03-12T19:24:59.273Z,65.68
2024-03-12T19:27:31.435Z,69.70
2024-03-12T19:30:07.097Z,71.43
2024-03-12T19:32:42.548Z,66.10
2024-03-12T19:35:15.570Z,69.28
2024-03-12T19:37:48.911Z,73.75
2024-03-12T19:40:23.092Z,72.45
2024-03-12T19:42:57.088Z,64.97
2024-03-12T19:45:31.570Z,69.72
2024-03-12T19:48:07.395Z,68.85
2024-03-12T19:50:39.442Z,65.32
2024-03-12T19:53:11.044Z,75.32
2024-03-12T19:55:45.065Z,69.13
2024-03-12T19:58:16.475Z,68.40
2024-03-12T20:00:51.570Z,72.55
2024-03-12T20:03:27.792Z,67.40
2024-03-12T20:05:59.717Z,68.72
2024-03-12T20:08:30.877Z,68.85
2024-03-12T20:11:02.189Z,68.40
2024-03-12T20:13:37.136Z,74.50
2024-03-12T20:16:12.576Z,73.03
2024-03-12T20:18:46.404Z,66.18
2024-03-12T20:21:18.294Z,80.03
2024-03-12T20:23:49.367Z,84.60
2024-03-12T20:26:21.368Z,74.18
2024-03-12T20:28:52.863Z,73.43
2024-03-12T20:31:24.769Z,72.00
2024-03-12T20:33:59.044Z,75.40
2024-03-12T20:36:30.339Z,71.85
2024-03-12T20:39:02.018Z,71.07
2024-03-12T20:41:33.453Z,80.97
2024-03-12T20:44:04.657Z,90.28
2024-03-12T20:49:11.690Z,86.47
2024-03-12T20:51:43.661Z,92.35
2024-03-12T20:54:15.153Z,89.65
2024-03-12T20:56:48.163Z,96.95
2024-03-12T20:59:19.522Z,83.78
2024-03-12T21:01:51.331Z,91.65
2024-03-12T21:04:26.402Z,84.78
2024-03-12T21:06:58.752Z,102.03
2024-03-12T21:09:29.916Z,95.40
2024-03-12T21:12:02.852Z,108.00
2024-03-12T21:14:34.385Z,92.82
2024-03-12T21:17:07.758Z,83.97
2024-03-12T21:19:41.449Z,95.63
2024-03-12T21:22:12.527Z,92.20
2024-03-12T21:24:45.228Z,92.30
2024-03-12T21:27:18.107Z,101.00
2024-03-12T21:29:49.501Z,97.82
2024-03-12T21:32:20.898Z,94.40
2024-03-12T21:34:55.339Z,83.53
2024-03-12T21:37:26.995Z,86.38
2024-03-12T21:39:58.122Z,94.78
2024-03-12T21:42:29.569Z,93.63
2024-03-12T21:45:01.413Z,89.07
2024-03-12T21:47:32.439Z,84.15
2024-03-12T21:50:06.196Z,103.03
2024-03-12T21:52:37.221Z,95.25
2024-03-12T21:55:12.410Z,83.70
2024-03-12T21:57:45.488Z,88.93
2024-03-12T22:00:25.829Z,92.85
2024-03-12T22:02:59.968Z,83.43
2024-03-12T22:05:36.306Z,88.93
2024-03-12T22:08:10.769Z,93.25
2024-03-12T22:10:43.362Z,107.10
2024-03-12T22:13:24.273Z,83.25
2024-03-12T22:16:07.310Z,89.78
2024-03-12T22:18:40.707Z,88.65
2024-03-12T22:21:17.372Z,88.10
2024-03-12T22:23:50.896Z,98.25
2024-03-12T22:26:24.531Z,91.28
2024-03-12T22:28:56.544Z,89.75
2024-03-12T22:31:29.080Z,88.95
2024-03-12T22:34:02.242Z,94.90
2024-03-12T22:39:15.003Z,91.78
2024-03-12T22:41:49.417Z,75.40
2024-03-12T22:44:23.303Z,78.18
2024-03-12T22:46:57.139Z,73.28
2024-03-12T22:49:30.448Z,68.10
2024-03-12T22:52:09.863Z,78.07
2024-03-12T22:54:44.456Z,73.85
2024-03-12T22:57:18.247Z,74.07
2024-03-12T22:59:53.425Z,79.35
2024-03-12T23:02:30.404Z,67.05
2024-03-12T23:05:05.150Z,70.10
2024-03-12T23:07:41.678Z,64.82
2024-03-12T23:10:14.755Z,68.70
2024-03-12T23:12:47.750Z,73.90
2024-03-12T23:15:22.109Z,70.32
2024-03-12T23:17:55.119Z,63.88
2024-03-12T23:20:28.645Z,68.00
2024-03-12T23:23:04.281Z,75.28
2024-03-12T23:25:38.097Z,57.80
2024-03-12T23:28:12.798Z,68.63
2024-03-12T23:30:47.109Z,67.32
2024-03-12T23:33:20.356Z,68.50
2024-03-12T23:35:53.649Z,74.60
2024-03-12T23:38:29.597Z,64.25
2024-03-12T23:41:02.249Z,65.18
2024-03-12T23:43:35.730Z,67.82
2024-03-12T23:46:09.014Z,63.45
2024-03-12T23:48:42.797Z,63.22
2024-03-12T23:51:16.189Z,68.65
2024-03-12T23:53:52.680Z,71.30
2024-03-12T23:56:28.137Z,57.33
2024-03-12T23:59:01.612Z,60.33
